Time;durP1;ratioP1;P1;durP2;ratioP2;P2;SDS_P1;SDS_P2;PMS_P1;PMS_P2;Temp;Humidity;BMP_temperature;BMP_pressure;BME280_temperature;BME280_humidity;BME280_pressure;Samples;Min_cycle;Max_cycle;Signal;HPM_P1;HPM_P2
2023/04/21 00:05:02;;;;;;;21.70;9.80;;;;;;;12.13;60.78;99165.77;223625;182;137281;-65
2023/04/21 00:10:09;;;;;;;24.00;9.80;;;;;;;12.12;60.80;99163.89;223699;182;145890;-69
2023/04/21 00:15:12;;;;;;;24.90;10.10;;;;;;;12.11;61.38;99166.95;223718;182;138915;-68
2023/04/21 00:20:15;;;;;;;24.90;9.20;;;;;;;12.09;61.67;99159.95;223556;182;137380;-66
2023/04/21 00:25:18;;;;;;;17.10;9.10;;;;;;;12.07;61.79;99155.08;223695;182;146291;-67
2023/04/21 00:30:22;;;;;;;19.10;8.90;;;;;;;12.09;61.71;99155.35;223772;182;138586;-66
2023/04/21 00:35:25;;;;;;;22.20;9.80;;;;;;;12.09;61.88;99151.05;223718;182;136882;-67
2023/04/21 00:40:29;;;;;;;21.40;9.20;;;;;;;12.08;62.28;99151.11;223728;182;146252;-64
2023/04/21 00:45:32;;;;;;;18.20;8.50;;;;;;;12.10;62.48;99153.17;223771;183;138724;-64
2023/04/21 00:50:36;;;;;;;17.20;8.40;;;;;;;12.11;62.72;99150.77;223796;182;138886;-64
2023/04/21 00:55:41;;;;;;;19.60;9.40;;;;;;;12.12;62.88;99145.02;223652;182;145570;-64
2023/04/21 01:00:44;;;;;;;22.30;8.90;;;;;;;12.17;62.41;99142.17;223782;182;138405;-63
2023/04/21 01:05:47;;;;;;;25.30;9.70;;;;;;;12.19;62.54;99142.77;223563;183;138291;-64
2023/04/21 01:10:50;;;;;;;29.60;10.90;;;;;;;12.20;62.62;99142.50;223665;182;145344;-64
2023/04/21 01:15:54;;;;;;;28.30;10.30;;;;;;;12.19;62.62;99139.55;223644;182;139326;-64
2023/04/21 01:20:58;;;;;;;31.80;10.40;;;;;;;12.12;62.33;99140.21;223774;183;137131;-68
2023/04/21 01:26:02;;;;;;;20.40;8.50;;;;;;;12.05;62.23;99141.73;223802;183;146263;-68
2023/04/21 01:31:05;;;;;;;18.60;9.20;;;;;;;12.01;62.41;99147.88;223667;181;139362;-68
2023/04/21 01:36:09;;;;;;;21.40;10.10;;;;;;;11.94;62.96;99144.40;223771;182;137446;-68
2023/04/21 01:41:12;;;;;;;25.30;9.30;;;;;;;11.88;63.24;99144.47;223795;182;146284;-63
2023/04/21 01:46:19;;;;;;;13.50;8.40;;;;;;;11.83;63.16;99140.17;223752;182;138072;-63
2023/04/21 01:51:22;;;;;;;19.20;8.80;;;;;;;11.78;63.54;99140.30;223734;182;140184;-64
2023/04/21 01:56:25;;;;;;;17.90;9.40;;;;;;;11.73;63.76;99141.50;223708;182;148366;-65
2023/04/21 02:01:29;;;;;;;22.80;9.60;;;;;;;11.73;63.85;99140.45;223759;182;139623;-65
2023/04/21 02:06:32;;;;;;;35.00;10.70;;;;;;;11.73;63.67;99141.30;223721;182;136807;-65
2023/04/21 02:11:35;;;;;;;23.50;9.30;;;;;;;11.72;63.90;99142.29;223717;182;145733;-64
2023/04/21 02:16:38;;;;;;;28.20;9.90;;;;;;;11.70;63.84;99145.05;223605;182;138570;-64
2023/04/21 02:21:41;;;;;;;30.10;10.60;;;;;;;11.71;63.80;99144.67;223720;182;137815;-65
2023/04/21 02:26:44;;;;;;;26.90;9.20;;;;;;;11.69;63.57;99145.65;223659;182;145732;-63
2023/04/21 02:31:47;;;;;;;24.50;9.50;;;;;;;11.64;62.98;99144.77;223637;183;138468;-64
2023/04/21 02:37:09;;;;;;;15.90;8.30;;;;;;;11.56;62.76;99148.98;223779;181;139948;-64
2023/04/21 02:42:12;;;;;;;20.10;8.70;;;;;;;11.48;62.30;99148.42;223681;182;145869;-64
2023/04/21 02:47:15;;;;;;;19.00;10.00;;;;;;;11.40;61.60;99146.28;223704;182;138383;-64
2023/04/21 02:52:18;;;;;;;18.40;9.10;;;;;;;11.32;61.90;99148.92;223717;182;137876;-63
2023/04/21 02:57:21;;;;;;;19.00;8.40;;;;;;;11.28;61.97;99151.84;223721;182;147479;-62
2023/04/21 03:02:25;;;;;;;16.00;8.30;;;;;;;11.19;61.75;99146.23;223698;181;138212;-62
2023/04/21 03:07:28;;;;;;;20.10;8.40;;;;;;;11.10;61.52;99142.48;223728;182;137082;-62
2023/04/21 03:12:32;;;;;;;14.10;7.60;;;;;;;11.09;61.45;99149.27;223839;182;147350;-63
2023/04/21 03:17:35;;;;;;;18.90;8.30;;;;;;;11.03;61.58;99149.32;223608;182;139542;-66
2023/04/21 03:22:39;;;;;;;16.20;8.40;;;;;;;10.96;61.24;99151.91;223672;182;137063;-64
2023/04/21 03:27:42;;;;;;;20.90;8.20;;;;;;;10.89;61.15;99151.25;223794;182;147346;-63
2023/04/21 03:32:45;;;;;;;14.00;8.10;;;;;;;10.82;61.48;99154.20;223677;182;138250;-61
2023/04/21 03:37:49;;;;;;;17.50;8.30;;;;;;;10.74;61.69;99153.64;223804;182;136966;-62
2023/04/21 03:42:52;;;;;;;15.00;7.80;;;;;;;10.66;61.98;99154.99;223691;182;147276;-65
2023/04/21 03:47:55;;;;;;;16.70;8.50;;;;;;;10.59;62.08;99159.61;223704;182;138401;-67
2023/04/21 03:52:58;;;;;;;18.00;8.10;;;;;;;10.54;62.38;99163.30;223693;182;138969;-67
2023/04/21 03:58:01;;;;;;;25.40;9.50;;;;;;;10.51;62.77;99164.73;223628;182;149145;-69
2023/04/21 04:03:06;;;;;;;31.60;9.40;;;;;;;10.45;62.68;99166.55;223695;182;139939;-69
2023/04/21 04:08:09;;;;;;;22.00;9.30;;;;;;;10.42;62.70;99169.19;223556;182;138903;-68
2023/04/21 04:13:12;;;;;;;24.00;9.20;;;;;;;10.39;62.53;99171.69;223636;182;147045;-67
2023/04/21 04:18:15;;;;;;;22.00;9.00;;;;;;;10.36;62.47;99172.36;223682;181;138678;-66
2023/04/21 04:23:18;;;;;;;23.80;8.90;;;;;;;10.34;62.90;99177.48;223615;182;138155;-68
2023/04/21 04:28:21;;;;;;;23.50;9.60;;;;;;;10.35;63.39;99186.64;223615;182;147189;-64
2023/04/21 04:33:25;;;;;;;33.30;9.40;;;;;;;10.38;63.31;99196.36;223693;182;138322;-65
2023/04/21 04:38:29;;;;;;;22.40;8.70;;;;;;;10.48;63.35;99200.06;223688;182;139396;-65
2023/04/21 04:43:38;;;;;;;21.30;8.70;;;;;;;10.61;62.63;99201.80;223741;182;147060;-65
2023/04/21 04:48:41;;;;;;;26.60;9.50;;;;;;;10.81;61.52;99197.23;223644;181;139250;-65
2023/04/21 04:53:44;;;;;;;20.40;9.10;;;;;;;10.99;60.84;99200.38;223735;182;137648;-70
2023/04/21 04:58:47;;;;;;;18.10;9.00;;;;;;;11.16;59.39;99201.98;223709;182;147592;-64
2023/04/21 05:03:50;;;;;;;114.80;75.90;;;;;;;11.29;59.76;99206.46;223644;182;139180;-66
2023/04/21 05:08:53;;;;;;;51.40;31.20;;;;;;;11.39;60.25;99210.34;223735;182;137903;-63
2023/04/21 05:13:57;;;;;;;29.90;13.70;;;;;;;11.50;60.49;99209.98;223618;182;147054;-63
2023/04/21 05:19:01;;;;;;;18.10;9.90;;;;;;;11.62;60.14;99208.54;223726;182;138333;-63
2023/04/21 05:24:04;;;;;;;16.40;9.10;;;;;;;11.67;60.10;99202.30;223704;182;137198;-64
2023/04/21 05:29:08;;;;;;;16.20;9.60;;;;;;;11.76;59.67;99204.02;223687;182;146946;-65
2023/04/21 05:34:11;;;;;;;18.90;9.00;;;;;;;11.91;59.05;99203.16;223587;182;140424;-66
2023/04/21 05:39:20;;;;;;;20.80;8.90;;;;;;;12.04;58.53;99204.40;223684;182;137406;-65
2023/04/21 05:44:25;;;;;;;17.00;8.40;;;;;;;12.13;58.22;99204.17;223693;182;146821;-65
2023/04/21 05:49:29;;;;;;;20.40;9.20;;;;;;;12.25;57.85;99207.84;223663;182;138830;-66
2023/04/21 05:54:32;;;;;;;19.80;9.40;;;;;;;12.39;56.97;99202.28;223663;182;137594;-62
2023/04/21 05:59:35;;;;;;;21.80;8.70;;;;;;;12.51;56.43;99200.56;223693;182;146927;-63
2023/04/21 06:04:38;;;;;;;19.10;9.10;;;;;;;12.62;56.57;99198.26;223638;182;138372;-63
2023/04/21 06:09:41;;;;;;;22.20;9.30;;;;;;;12.71;56.53;99196.20;223665;182;137591;-67
2023/04/21 06:14:44;;;;;;;22.70;9.20;;;;;;;12.82;56.20;99195.58;223622;183;147125;-65
2023/04/21 06:21:04;;;;;;;83.10;55.40;;;;;;;13.03;55.98;99200.95;220322;193;666268;-65
2023/04/21 06:26:09;;;;;;;18.30;9.10;;;;;;;13.16;56.44;99204.26;223426;185;137931;-66
2023/04/21 06:31:14;;;;;;;26.70;11.10;;;;;;;13.27;55.75;99196.98;223487;185;143571;-69
2023/04/21 06:36:18;;;;;;;18.30;9.70;;;;;;;13.36;55.70;99191.20;223459;184;140246;-66
2023/04/21 06:41:22;;;;;;;16.30;8.60;;;;;;;13.44;55.55;99191.46;223829;181;137162;-66
2023/04/21 06:46:26;;;;;;;21.70;9.60;;;;;;;13.58;55.08;99187.63;223959;180;143479;-65
2023/04/21 06:51:31;;;;;;;166.80;108.70;;;;;;;13.74;55.43;99186.48;223847;181;138367;-66
2023/04/21 06:56:34;;;;;;;21.80;11.40;;;;;;;13.94;55.00;99186.96;223915;180;137550;-64
2023/04/21 07:01:38;;;;;;;190.50;120.50;;;;;;;14.04;54.58;99187.29;223938;180;143378;-65
2023/04/21 07:06:42;;;;;;;33.30;13.60;;;;;;;14.22;54.38;99186.70;223732;182;138997;-64
2023/04/21 07:11:45;;;;;;;26.30;10.00;;;;;;;14.28;53.86;99185.11;223797;181;137558;-63
2023/04/21 07:16:48;;;;;;;22.50;9.20;;;;;;;14.36;53.86;99185.27;223795;180;146070;-64
2023/04/21 07:21:51;;;;;;;16.70;8.30;;;;;;;14.43;53.65;99180.99;223846;181;138221;-65
2023/04/21 07:26:55;;;;;;;18.80;8.60;;;;;;;14.52;53.41;99179.42;223872;181;140264;-65
2023/04/21 07:31:58;;;;;;;15.30;8.00;;;;;;;14.61;52.83;99179.97;223754;181;145843;-65
2023/04/21 07:37:01;;;;;;;16.00;7.10;;;;;;;14.71;52.92;99181.02;223629;181;139077;-64
2023/04/21 07:42:07;;;;;;;13.70;7.10;;;;;;;14.84;52.59;99176.26;223808;181;136610;-63
2023/04/21 07:47:10;;;;;;;175.40;128.30;;;;;;;14.97;51.73;99170.42;223791;181;146764;-66
2023/04/21 07:52:13;;;;;;;17.90;10.20;;;;;;;15.10;51.14;99174.08;223824;180;138481;-67
2023/04/21 07:57:16;;;;;;;15.10;7.70;;;;;;;15.20;50.67;99174.38;223790;181;139047;-62
2023/04/21 08:02:19;;;;;;;14.70;7.90;;;;;;;15.31;51.01;99166.29;223763;181;145071;-61
2023/04/21 08:07:23;;;;;;;15.50;7.70;;;;;;;15.43;50.90;99165.72;223684;181;138568;-64
2023/04/21 08:12:26;;;;;;;63.10;42.90;;;;;;;15.55;50.71;99166.34;223800;181;136895;-62
2023/04/21 08:17:29;;;;;;;31.60;17.30;;;;;;;15.66;50.57;99164.08;223871;180;145255;-64
2023/04/21 08:22:32;;;;;;;15.40;8.20;;;;;;;15.76;50.57;99164.37;223738;181;138477;-66
2023/04/21 08:27:38;;;;;;;14.40;8.10;;;;;;;15.84;50.01;99165.67;223770;181;137398;-64
2023/04/21 08:32:44;;;;;;;18.60;8.60;;;;;;;15.93;50.22;99162.73;223498;181;145251;-64
2023/04/21 08:37:48;;;;;;;377.20;335.80;;;;;;;16.04;49.90;99159.36;223673;181;138871;-64
2023/04/21 08:42:53;;;;;;;31.70;20.50;;;;;;;16.13;49.86;99160.58;223686;181;137689;-64
2023/04/21 08:47:58;;;;;;;17.10;9.00;;;;;;;16.24;49.89;99156.42;223672;180;145372;-63
2023/04/21 08:53:02;;;;;;;18.10;8.60;;;;;;;16.40;49.49;99152.79;223681;181;138900;-63
2023/04/21 08:58:05;;;;;;;31.20;15.60;;;;;;;16.56;49.22;99148.88;223788;181;138995;-63
2023/04/21 09:03:09;;;;;;;15.40;9.00;;;;;;;16.71;48.68;99142.09;223669;181;145659;-64
2023/04/21 09:08:29;;;;;;;18.50;12.50;;;;;;;16.92;48.36;99143.36;223790;181;138541;-62
2023/04/21 09:13:34;;;;;;;75.20;51.90;;;;;;;17.11;48.44;99137.62;223732;181;141435;-64
2023/04/21 09:18:39;;;;;;;14.60;8.90;;;;;;;17.34;46.75;99134.48;223539;181;145645;-64
2023/04/21 09:23:46;;;;;;;20.20;8.50;;;;;;;17.48;45.93;99130.36;223578;181;138301;-64
2023/04/21 09:28:51;;;;;;;18.70;7.60;;;;;;;17.61;45.16;99129.55;223583;181;139932;-64
2023/04/21 09:33:56;;;;;;;12.30;7.50;;;;;;;17.75;44.09;99123.33;223570;214;145266;-64
2023/04/21 09:39:05;;;;;;;12.30;5.90;;;;;;;17.91;43.51;99115.73;223580;192;139198;-64
2023/04/21 09:44:10;;;;;;;11.80;5.70;;;;;;;18.04;40.82;99115.97;223660;181;137970;-65
2023/04/21 09:49:16;;;;;;;14.00;6.30;;;;;;;18.24;41.40;99113.06;223585;181;145262;-63
2023/04/21 09:54:20;;;;;;;128.50;92.40;;;;;;;18.33;41.33;99114.06;223453;192;138382;-64
2023/04/21 09:59:35;;;;;;;27.40;17.30;;;;;;;18.53;41.57;99104.99;223595;181;137019;-64
2023/04/21 10:04:41;;;;;;;17.70;10.40;;;;;;;18.84;43.25;99100.48;223608;185;145072;-64
2023/04/21 10:09:49;;;;;;;11.20;7.90;;;;;;;19.15;42.90;99093.73;223666;214;138385;-64
2023/04/21 10:14:56;;;;;;;13.30;10.10;;;;;;;19.12;41.88;99091.23;223741;181;137563;-67
2023/04/21 10:19:59;;;;;;;10.70;5.00;;;;;;;19.25;41.88;99089.50;223559;190;145078;-63
2023/04/21 10:25:07;;;;;;;12.40;7.70;;;;;;;19.21;41.68;99091.85;223635;182;138402;-63
2023/04/21 10:30:21;;;;;;;7.70;5.60;;;;;;;19.37;40.76;99089.21;223536;181;137489;-64
2023/04/21 10:35:24;;;;;;;6.80;4.90;;;;;;;19.68;38.86;99082.73;223626;180;145432;-64
2023/04/21 10:40:35;;;;;;;10.90;6.20;;;;;;;19.99;38.73;99078.56;223631;181;138626;-62
2023/04/21 10:45:46;;;;;;;8.90;6.80;;;;;;;20.06;40.79;99075.59;223708;187;136881;-63
2023/04/21 10:50:49;;;;;;;6.90;4.40;;;;;;;20.28;41.87;99070.98;223759;181;145262;-65
2023/04/21 10:55:52;;;;;;;7.90;4.40;;;;;;;20.50;39.49;99063.48;223558;181;138872;-64
2023/04/21 11:00:56;;;;;;;7.40;4.50;;;;;;;20.44;38.76;99060.70;223771;182;136666;-64
2023/04/21 11:05:59;;;;;;;8.40;4.50;;;;;;;20.48;39.98;99064.46;223775;180;145468;-65
2023/04/21 11:11:02;;;;;;;16.00;5.00;;;;;;;20.44;39.53;99064.48;223719;181;139322;-63
2023/04/21 11:16:06;;;;;;;7.80;4.50;;;;;;;20.25;38.64;99062.58;223805;181;137183;-65
2023/04/21 11:21:10;;;;;;;8.50;4.20;;;;;;;19.99;37.50;99063.48;223672;214;146930;-65
2023/04/21 11:26:14;;;;;;;6.90;4.20;;;;;;;19.89;37.64;99058.58;223563;181;139388;-65
2023/04/21 11:31:17;;;;;;;6.60;3.80;;;;;;;20.10;36.47;99053.00;223627;181;138588;-64
2023/04/21 11:36:21;;;;;;;6.50;3.80;;;;;;;20.18;36.97;99053.30;223529;181;146042;-66
2023/04/21 11:41:24;;;;;;;7.60;3.70;;;;;;;20.30;36.70;99041.77;223483;181;138215;-65
2023/04/21 11:46:28;;;;;;;6.20;3.80;;;;;;;20.56;36.11;99035.67;223702;180;140382;-66
2023/04/21 11:51:42;;;;;;;4.70;3.10;;;;;;;20.88;35.49;99037.55;223833;192;145296;-64
2023/04/21 11:56:46;;;;;;;7.50;3.40;;;;;;;21.30;34.35;99030.21;223654;181;139811;-67
2023/04/21 12:01:52;;;;;;;6.70;3.20;;;;;;;21.77;33.31;99026.11;223551;181;137527;-66
2023/04/21 12:06:58;;;;;;;5.60;3.30;;;;;;;22.11;32.27;99021.17;223734;181;145269;-65
2023/04/21 12:12:04;;;;;;;3.30;2.70;;;;;;;22.40;31.46;99017.38;223596;180;140440;-65
2023/04/21 12:17:07;;;;;;;5.80;4.40;;;;;;;22.47;30.64;99007.55;223428;183;138286;-65
2023/04/21 12:22:17;;;;;;;4.50;3.10;;;;;;;22.32;31.27;99003.28;223721;182;145344;-66
2023/04/21 12:27:20;;;;;;;5.10;3.10;;;;;;;22.14;31.13;99000.55;223709;214;138347;-67
2023/04/21 12:32:23;;;;;;;4.50;2.90;;;;;;;22.14;31.10;98988.79;223681;181;138038;-65
2023/04/21 12:37:26;;;;;;;7.20;3.00;;;;;;;22.40;30.02;98984.98;223662;181;145326;-67
2023/04/21 12:42:29;;;;;;;7.20;2.80;;;;;;;22.34;30.73;98982.04;223663;181;138356;-65
2023/04/21 12:47:35;;;;;;;3.80;3.10;;;;;;;22.06;30.83;98975.61;222809;183;137620;-65
2023/04/21 12:52:39;;;;;;;3.80;2.80;;;;;;;22.29;33.76;98980.52;223698;203;145840;-66
2023/04/21 12:57:42;;;;;;;4.80;3.20;;;;;;;22.64;31.38;98969.80;221535;184;138423;-66
2023/04/21 13:02:46;;;;;;;11.80;3.30;;;;;;;22.97;31.02;98965.58;223640;192;137777;-65
2023/04/21 13:07:49;;;;;;;6.20;2.70;;;;;;;23.11;30.69;98970.68;223597;185;145721;-66
2023/04/21 13:12:53;;;;;;;7.30;3.20;;;;;;;23.13;30.07;98964.96;223483;203;139487;-64
2023/04/21 13:17:57;;;;;;;5.90;3.10;;;;;;;23.50;29.12;98955.95;223719;181;136747;-65
2023/04/21 13:23:00;;;;;;;4.30;2.70;;;;;;;23.83;28.87;98953.70;223587;214;145666;-66
2023/04/21 13:28:03;;;;;;;5.40;2.70;;;;;;;24.16;28.66;98950.79;223683;214;138524;-65
2023/04/21 13:33:06;;;;;;;4.20;2.60;;;;;;;24.39;27.93;98944.84;223859;182;136482;-65
2023/04/21 13:38:11;;;;;;;6.50;2.70;;;;;;;24.59;27.13;98937.27;223735;181;145784;-65
2023/04/21 13:43:14;;;;;;;5.60;2.90;;;;;;;24.75;26.55;98934.78;223664;214;140101;-67
2023/04/21 13:48:20;;;;;;;5.30;2.70;;;;;;;24.85;26.07;98926.20;223629;185;137477;-66
2023/04/21 13:53:25;;;;;;;6.70;2.80;;;;;;;24.95;26.11;98923.79;223575;181;145720;-66
2023/04/21 13:58:29;;;;;;;6.20;2.90;;;;;;;25.02;26.32;98925.91;223653;196;140771;-67
2023/04/21 14:03:32;;;;;;;8.50;2.80;;;;;;;24.98;26.67;98914.35;223898;214;137204;-66
2023/04/21 14:08:36;;;;;;;4.90;2.80;;;;;;;24.97;26.40;98913.07;223769;181;145337;-65
2023/04/21 14:13:39;;;;;;;4.40;2.60;;;;;;;24.93;25.99;98909.38;223511;199;140059;-66
2023/04/21 14:19:05;;;;;;;6.60;2.40;;;;;;;24.90;25.63;98904.36;223803;181;140254;-64
2023/04/21 14:24:08;;;;;;;5.50;2.40;;;;;;;24.57;24.77;98904.96;223686;180;145371;-64
2023/04/21 14:29:12;;;;;;;4.30;2.40;;;;;;;24.30;24.69;98904.98;223565;181;138212;-65
2023/04/21 14:34:15;;;;;;;4.70;2.70;;;;;;;23.87;24.60;98903.96;223675;181;136715;-64
2023/04/21 14:39:18;;;;;;;4.80;2.30;;;;;;;23.40;24.88;98901.14;223701;181;145011;-64
2023/04/21 14:44:21;;;;;;;2.90;2.40;;;;;;;22.85;25.14;98895.58;223600;181;137593;-66
2023/04/21 14:49:27;;;;;;;3.80;2.70;;;;;;;22.37;25.36;98891.02;223495;181;138164;-65
2023/04/21 14:54:30;;;;;;;6.70;2.60;;;;;;;22.02;26.06;98885.00;223703;181;147112;-64
2023/04/21 14:59:33;;;;;;;5.90;2.60;;;;;;;21.76;26.46;98888.08;223769;184;138223;-65
2023/04/21 15:04:37;;;;;;;3.40;2.20;;;;;;;21.52;26.39;98884.23;223223;183;139622;-67
2023/04/21 15:09:44;;;;;;;4.80;2.70;;;;;;;21.32;26.59;98879.21;223686;211;147331;-66
2023/04/21 15:14:47;;;;;;;4.20;2.70;;;;;;;21.16;26.86;98881.46;223614;181;138779;-68
2023/04/21 15:19:50;;;;;;;6.40;2.90;;;;;;;21.03;26.70;98878.35;223716;203;138372;-64
2023/04/21 15:24:54;;;;;;;7.30;2.70;;;;;;;20.92;27.08;98871.02;223840;181;147071;-66
2023/04/21 15:29:57;;;;;;;6.40;3.00;;;;;;;20.86;27.78;98873.00;223482;181;138278;-65
2023/04/21 15:35:01;;;;;;;4.50;2.80;;;;;;;20.77;27.94;98871.04;223810;214;137148;-67
2023/04/21 15:40:04;;;;;;;10.00;2.80;;;;;;;20.70;29.28;98867.84;223638;214;147136;-65
2023/04/21 15:45:08;;;;;;;8.10;2.90;;;;;;;20.64;29.12;98865.73;223571;193;139125;-64
2023/04/21 15:50:11;;;;;;;7.70;2.80;;;;;;;20.66;29.19;98861.38;223675;180;137042;-67
2023/04/21 15:55:16;;;;;;;4.30;2.50;;;;;;;20.83;29.17;98864.23;223589;181;147034;-65
2023/04/21 16:00:29;;;;;;;3.90;2.40;;;;;;;21.45;28.40;98860.00;223519;181;140143;-66
2023/04/21 16:05:32;;;;;;;4.70;3.00;;;;;;;22.36;25.97;98855.18;223643;181;137152;-67
2023/04/21 16:10:38;;;;;;;5.10;2.70;;;;;;;22.86;24.93;98847.52;223438;181;147412;-66
2023/04/21 16:15:45;;;;;;;5.20;2.40;;;;;;;22.65;25.64;98848.35;223632;191;138397;-67
2023/04/21 16:20:48;;;;;;;8.50;2.50;;;;;;;22.33;25.38;98844.56;223698;181;137686;-66
2023/04/21 16:25:52;;;;;;;6.40;2.90;;;;;;;22.22;25.39;98842.46;223780;181;146833;-65
2023/04/21 16:30:55;;;;;;;6.30;2.60;;;;;;;21.93;25.45;98839.49;223414;181;138520;-64
2023/04/21 16:35:58;;;;;;;4.40;2.70;;;;;;;21.54;26.29;98844.48;223458;181;137179;-63
2023/04/21 16:41:02;;;;;;;5.40;2.60;;;;;;;21.18;27.29;98846.61;223557;181;147108;-65
2023/04/21 16:46:05;;;;;;;7.10;2.70;;;;;;;20.89;28.10;98844.67;223699;180;139377;-64
2023/04/21 16:51:09;;;;;;;9.30;3.10;;;;;;;20.57;28.35;98845.08;223648;182;138048;-63
2023/04/21 16:56:15;;;;;;;9.30;3.30;;;;;;;20.27;28.62;98844.98;223567;181;147173;-65
2023/04/21 17:01:18;;;;;;;6.10;2.80;;;;;;;20.00;29.57;98850.29;223663;180;138861;-64
2023/04/21 17:06:21;;;;;;;9.60;3.30;;;;;;;19.86;30.95;98849.57;223756;214;137025;-64
2023/04/21 17:11:26;;;;;;;7.10;2.90;;;;;;;19.65;30.80;98845.45;223514;181;147681;-64
2023/04/21 17:16:30;;;;;;;5.70;2.70;;;;;;;19.46;30.54;98845.63;223591;181;139347;-64
2023/04/21 17:21:33;;;;;;;6.60;2.80;;;;;;;19.24;30.55;98844.46;223678;214;137132;-64
2023/04/21 17:26:36;;;;;;;9.70;2.70;;;;;;;19.05;30.28;98845.09;223637;180;146903;-64
2023/04/21 17:31:40;;;;;;;7.30;3.10;;;;;;;18.84;30.78;98849.50;223695;181;138852;-63
2023/04/21 17:36:43;;;;;;;8.50;3.20;;;;;;;18.67;30.76;98851.89;223664;214;137208;-63
2023/04/21 17:41:47;;;;;;;7.50;3.30;;;;;;;18.48;31.93;98853.06;223703;180;147677;-63
2023/04/21 17:46:51;;;;;;;7.10;3.30;;;;;;;18.40;33.27;98850.87;223690;180;138555;-63
2023/04/21 17:51:54;;;;;;;6.10;3.10;;;;;;;18.36;34.65;98849.38;223721;214;138074;-63
2023/04/21 17:56:57;;;;;;;12.20;3.80;;;;;;;18.25;34.13;98844.36;223751;181;148875;-63
2023/04/21 18:02:00;;;;;;;6.60;3.60;;;;;;;18.22;34.81;98852.67;223537;181;138831;-64
2023/04/21 18:07:03;;;;;;;8.70;3.50;;;;;;;18.16;34.87;98855.00;223482;181;136959;-62
2023/04/21 18:12:06;;;;;;;15.50;4.20;;;;;;;18.09;35.41;98856.38;223598;181;148376;-65
2023/04/21 18:17:10;;;;;;;11.80;4.20;;;;;;;17.69;34.83;98863.78;223580;181;138379;-63
2023/04/21 18:22:13;;;;;;;15.00;4.80;;;;;;;17.37;34.99;98866.95;223611;181;137710;-62
2023/04/21 18:27:16;;;;;;;10.80;5.00;;;;;;;17.11;35.52;98869.70;223848;214;147558;-64
2023/04/21 18:32:20;;;;;;;10.90;5.20;;;;;;;16.88;35.79;98874.86;223775;181;140126;-61
2023/04/21 18:37:23;;;;;;;13.60;5.80;;;;;;;16.66;36.68;98877.21;223736;182;139181;-63
2023/04/21 18:42:26;;;;;;;14.10;5.90;;;;;;;16.48;37.17;98877.54;222358;181;148376;-66
2023/04/21 18:47:30;;;;;;;14.20;5.30;;;;;;;16.31;37.82;98877.59;223693;181;138278;-64
2023/04/21 18:52:33;;;;;;;14.20;5.60;;;;;;;16.13;37.90;98885.25;223625;182;138735;-64
2023/04/21 18:57:36;;;;;;;22.50;7.30;;;;;;;15.98;38.11;98883.94;223719;207;147450;-64
2023/04/21 19:02:39;;;;;;;15.60;6.00;;;;;;;15.82;39.15;98886.19;223560;185;140112;-64
2023/04/21 19:07:43;;;;;;;21.90;6.60;;;;;;;15.68;39.42;98885.41;222357;182;137090;-65
2023/04/21 19:12:46;;;;;;;18.60;6.70;;;;;;;15.54;40.01;98885.29;221276;183;148348;-67
2023/04/21 19:17:51;;;;;;;19.30;7.00;;;;;;;15.39;40.72;98883.36;223630;181;140467;-64
2023/04/21 19:22:54;;;;;;;16.10;6.50;;;;;;;15.24;41.26;98881.98;223783;181;137530;-63
2023/04/21 19:27:57;;;;;;;24.70;7.40;;;;;;;15.10;42.33;98885.83;223882;182;147319;-63
2023/04/21 19:33:01;;;;;;;20.00;7.10;;;;;;;14.97;42.91;98889.23;223682;181;142467;-65
2023/04/21 19:38:05;;;;;;;18.70;7.70;;;;;;;14.84;43.56;98888.17;223654;181;137997;-64
2023/04/21 19:43:09;;;;;;;23.20;8.60;;;;;;;14.73;43.79;98889.92;223567;181;147735;-64
2023/04/21 19:48:12;;;;;;;25.90;8.90;;;;;;;14.63;44.37;98893.73;223611;181;139896;-63
2023/04/21 19:53:17;;;;;;;30.60;10.80;;;;;;;14.54;44.89;98890.64;223853;180;137629;-64
2023/04/21 19:58:20;;;;;;;29.10;12.40;;;;;;;14.42;45.46;98888.14;223650;214;147326;-64
2023/04/21 20:03:41;;;;;;;24.50;14.30;;;;;;;14.33;45.73;98889.05;223745;181;138339;-63
2023/04/21 20:08:44;;;;;;;29.50;13.40;;;;;;;14.23;46.07;98890.02;223745;181;138088;-65
2023/04/21 20:13:47;;;;;;;28.70;14.40;;;;;;;14.10;46.69;98895.30;223727;181;147932;-64
2023/04/21 20:18:51;;;;;;;40.40;15.50;;;;;;;14.00;47.63;98897.90;223502;181;138795;-62
2023/04/21 20:29:32;;;;;;;34.40;17.40;;;;;;;13.75;48.58;98896.42;219385;193;665567;-67
2023/04/21 20:34:35;;;;;;;40.70;19.00;;;;;;;13.60;48.77;98899.56;222545;184;137331;-65
2023/04/21 20:39:40;;;;;;;39.50;18.90;;;;;;;13.47;49.32;98906.98;223548;186;144087;-67
2023/04/21 20:44:43;;;;;;;37.90;19.90;;;;;;;13.37;49.74;98904.86;223521;183;140369;-66
2023/04/21 20:49:47;;;;;;;38.90;19.00;;;;;;;13.26;49.91;98903.38;223498;183;136817;-65
2023/04/21 20:54:50;;;;;;;38.00;19.70;;;;;;;13.15;50.46;98910.22;223604;183;143468;-65
2023/04/21 20:59:53;;;;;;;38.20;19.60;;;;;;;13.06;50.77;98911.64;223483;183;141013;-65
2023/04/21 21:04:56;;;;;;;34.20;18.30;;;;;;;12.96;51.17;98914.70;223008;183;136882;-64
2023/04/21 21:09:59;;;;;;;35.80;19.40;;;;;;;12.85;51.46;98915.86;223541;216;143747;-66
2023/04/21 21:15:04;;;;;;;33.80;17.90;;;;;;;12.75;51.70;98915.13;223455;183;138436;-63
2023/04/21 21:20:07;;;;;;;34.10;17.40;;;;;;;12.63;51.95;98913.52;223448;183;137036;-62
2023/04/21 21:25:11;;;;;;;31.10;17.50;;;;;;;12.53;52.32;98915.34;223539;183;145548;-63
2023/04/21 21:30:14;;;;;;;31.60;18.40;;;;;;;12.45;52.41;98915.40;223450;183;138347;-64
2023/04/21 21:35:17;;;;;;;34.30;18.30;;;;;;;12.35;52.53;98913.98;223402;183;137868;-64
2023/04/21 21:40:20;;;;;;;37.90;19.30;;;;;;;12.28;52.62;98913.06;223515;187;145050;-64
2023/04/21 21:45:24;;;;;;;33.20;19.70;;;;;;;12.20;52.99;98918.08;223411;197;138670;-65
2023/04/21 21:50:27;;;;;;;31.30;19.10;;;;;;;12.11;53.19;98923.84;223505;183;137362;-64
2023/04/21 21:55:30;;;;;;;30.00;17.00;;;;;;;12.02;53.57;98926.58;223482;183;145689;-64
2023/04/21 22:00:33;;;;;;;38.70;17.20;;;;;;;11.95;53.75;98927.27;223370;183;139628;-64
2023/04/21 22:05:37;;;;;;;26.80;17.80;;;;;;;11.87;53.68;98928.36;223412;183;138161;-64
2023/04/21 22:10:41;;;;;;;29.00;17.80;;;;;;;11.81;53.80;98925.55;223389;183;145345;-67
2023/04/21 22:15:45;;;;;;;35.70;17.80;;;;;;;11.73;54.12;98926.77;223315;217;138482;-65
2023/04/21 22:20:48;;;;;;;33.80;18.00;;;;;;;11.67;54.55;98926.67;223441;182;136931;-63
2023/04/21 22:25:51;;;;;;;34.20;18.00;;;;;;;11.63;54.66;98929.97;223461;183;145572;-65
2023/04/21 22:30:55;;;;;;;32.40;17.10;;;;;;;11.58;54.94;98930.48;223436;183;138347;-64
2023/04/21 22:35:58;;;;;;;33.90;18.40;;;;;;;11.53;54.76;98932.98;223446;183;137024;-65
2023/04/21 22:41:01;;;;;;;34.00;18.30;;;;;;;11.49;54.71;98928.63;223329;183;145358;-64
2023/04/21 22:47:27;;;;;;;31.60;18.00;;;;;;;11.48;55.17;98926.39;222235;205;666727;-64
2023/04/21 22:52:30;;;;;;;30.80;18.50;;;;;;;11.42;55.29;98927.64;223193;186;137557;-65
2023/04/21 22:57:36;;;;;;;32.40;18.60;;;;;;;11.37;55.59;98926.60;223517;217;144351;-68
2023/04/21 23:02:39;;;;;;;;;;;;;;;11.32;55.56;98922.32;223426;184;138168;-66
2023/04/21 23:07:42;;;;;;;30.10;17.90;;;;;;;11.26;55.63;98925.88;223964;181;217502;-64
2023/04/21 23:12:45;;;;;;;33.30;18.20;;;;;;;11.19;56.02;98925.52;223938;182;144051;-64
2023/04/21 23:17:49;;;;;;;34.10;18.50;;;;;;;11.15;56.23;98927.92;223653;181;140050;-64
2023/04/21 23:22:52;;;;;;;35.60;17.80;;;;;;;11.07;56.49;98929.60;223668;181;137734;-64
2023/04/21 23:27:55;;;;;;;36.00;17.20;;;;;;;11.03;56.34;98926.36;223803;214;143323;-66